createdAt,value
2019-01-21T00:00:10.477Z,-1.87
2019-01-21T00:01:19.908Z,-1.96
2019-01-21T00:02:29.606Z,-1.94
2019-01-21T00:03:39.290Z,-1.92
2019-01-21T00:04:48.974Z,-1.92
2019-01-21T00:05:58.912Z,-1.89
2019-01-21T00:07:08.629Z,-1.79
2019-01-21T00:08:18.299Z,-1.92
2019-01-21T00:09:28.232Z,-1.82
2019-01-21T00:10:38.168Z,-1.75
2019-01-21T00:11:47.616Z,-1.75
2019-01-21T00:12:57.093Z,-1.75
2019-01-21T00:14:07.032Z,-1.76
2019-01-21T00:15:16.470Z,-1.76
2019-01-21T00:16:26.470Z,-1.58
2019-01-21T00:17:36.416Z,-1.6
2019-01-21T00:18:46.344Z,-1.57
2019-01-21T00:19:55.783Z,-1.56
2019-01-21T00:21:05.723Z,-1.54
2019-01-21T00:22:15.417Z,-1.51
2019-01-21T00:23:25.097Z,-1.53
2019-01-21T00:24:34.780Z,-1.45
2019-01-21T00:25:44.705Z,-1.56
2019-01-21T00:26:54.384Z,-1.54
2019-01-21T00:28:03.821Z,-1.5
2019-01-21T00:29:13.745Z,-1.5
2019-01-21T00:30:23.683Z,-1.38
2019-01-21T00:31:33.628Z,-1.32
2019-01-21T00:32:43.301Z,-1.3
2019-01-21T00:33:53.236Z,-1.3
2019-01-21T00:35:02.944Z,-1.36
2019-01-21T00:36:12.629Z,-1.36
2019-01-21T00:37:22.567Z,-1.29
2019-01-21T00:38:32.509Z,-1.27
2019-01-21T00:39:42.439Z,-1.27
2019-01-21T00:40:52.366Z,-1.24
2019-01-21T00:42:02.051Z,-1.32
2019-01-21T00:43:11.987Z,-1.38
2019-01-21T00:44:21.920Z,-1.35
2019-01-21T00:45:31.613Z,-1.35
2019-01-21T00:46:41.293Z,-1.36
2019-01-21T00:47:50.976Z,-1.43
2019-01-21T00:49:00.982Z,-1.5
2019-01-21T00:50:10.669Z,-1.54
2019-01-21T00:51:20.363Z,-1.58
2019-01-21T00:52:30.047Z,-1.61
2019-01-21T00:53:39.983Z,-1.61
2019-01-21T00:54:51.044Z,-1.57
2019-01-21T00:56:01.144Z,-1.56
2019-01-21T00:57:11.079Z,-1.57
2019-01-21T00:58:20.761Z,-1.58
2019-01-21T00:59:30.695Z,-1.6
2019-01-21T01:00:40.437Z,-1.57
2019-01-21T01:01:51.096Z,-1.56
2019-01-21T01:03:01.038Z,-1.57
2019-01-21T01:04:10.967Z,-1.54
2019-01-21T01:05:20.900Z,-1.56
2019-01-21T01:06:30.334Z,-1.56
2019-01-21T01:07:40.258Z,-1.58
2019-01-21T01:08:50.194Z,-1.57
2019-01-21T01:09:59.632Z,-1.6
2019-01-21T01:11:09.565Z,-1.58
2019-01-21T01:12:19.503Z,-1.68
2019-01-21T01:13:29.187Z,-1.72
2019-01-21T01:14:39.118Z,-1.71
2019-01-21T01:15:48.795Z,-1.71
2019-01-21T01:16:58.714Z,-1.68
2019-01-21T01:18:08.663Z,-1.76
2019-01-21T01:19:18.592Z,-1.71
2019-01-21T01:20:28.043Z,-1.71
2019-01-21T01:21:37.965Z,-1.68
2019-01-21T01:22:47.894Z,-1.74
2019-01-21T01:23:57.828Z,-1.66
2019-01-21T01:25:07.008Z,-1.54
2019-01-21T01:26:16.429Z,-1.57
2019-01-21T01:27:25.846Z,-1.57
2019-01-21T01:28:35.024Z,-1.54
2019-01-21T01:29:44.960Z,-1.71
2019-01-21T01:30:54.633Z,-1.61
2019-01-21T01:32:04.562Z,-1.6
2019-01-21T01:33:14.500Z,-1.58
2019-01-21T01:34:24.175Z,-1.57
2019-01-21T01:35:33.862Z,-1.51
2019-01-21T01:36:43.795Z,-1.54
2019-01-21T01:37:53.728Z,-1.48
2019-01-21T01:39:03.402Z,-1.57
2019-01-21T01:40:13.334Z,-1.46
2019-01-21T01:41:23.290Z,-1.46
2019-01-21T01:42:33.272Z,-1.45
2019-01-21T01:43:42.726Z,-1.39
2019-01-21T01:44:52.695Z,-1.48
2019-01-21T01:46:02.660Z,-1.54
2019-01-21T01:47:12.619Z,-1.58
2019-01-21T01:48:22.337Z,-1.61
2019-01-21T01:49:32.079Z,-1.66
2019-01-21T01:50:41.562Z,-1.75
2019-01-21T01:51:51.511Z,-1.61
2019-01-21T01:53:01.464Z,-1.71
2019-01-21T01:54:10.919Z,-1.6
2019-01-21T01:55:20.926Z,-1.58
2019-01-21T01:56:30.896Z,-1.54
2019-01-21T01:57:40.848Z,-1.56
2019-01-21T01:58:50.793Z,-1.54
2019-01-21T02:00:00.779Z,-1.51
2019-01-21T02:01:11.304Z,-1.57
2019-01-21T02:02:22.101Z,-1.61
2019-01-21T02:03:33.033Z,-1.66
2019-01-21T02:04:43.248Z,-1.68
2019-01-21T02:05:53.415Z,-1.74
2019-01-21T02:07:03.127Z,-1.87
2019-01-21T02:08:13.083Z,-1.89
2019-01-21T02:09:22.787Z,-1.89
2019-01-21T02:10:32.748Z,-1.92
2019-01-21T02:11:42.524Z,-1.94
2019-01-21T02:12:51.989Z,-1.87
2019-01-21T02:14:01.962Z,-1.89
2019-01-21T02:15:11.436Z,-1.9
2019-01-21T02:16:21.418Z,-1.92
2019-01-21T02:17:31.388Z,-1.9
2019-01-21T02:18:41.352Z,-2
2019-01-21T02:19:51.073Z,-2.05
2019-01-21T02:21:00.787Z,-2.04
2019-01-21T02:22:10.735Z,-2.02
2019-01-21T02:23:20.700Z,-2.05
2019-01-21T02:24:30.676Z,-2.08
2019-01-21T02:25:40.622Z,-2.08
2019-01-21T02:26:50.380Z,-2.08
2019-01-21T02:28:00.338Z,-2.04
2019-01-21T02:29:09.788Z,-2.07
2019-01-21T02:30:19.507Z,-2.13
2019-01-21T02:31:29.503Z,-2.1
2019-01-21T02:32:39.233Z,-2.18
2019-01-21T02:33:48.945Z,-2.23
2019-01-21T02:34:58.957Z,-2.28
2019-01-21T02:36:08.690Z,-2.26
2019-01-21T02:37:18.693Z,-2.29
2019-01-21T02:38:28.662Z,-2.26
2019-01-21T02:39:38.768Z,-2.29
2019-01-21T02:40:49.432Z,-2.29
2019-01-21T02:42:00.396Z,-2.25
2019-01-21T02:43:10.957Z,-2.32
2019-01-21T02:44:21.278Z,-2.26
2019-01-21T02:45:31.143Z,-2.25
2019-01-21T02:46:41.129Z,-2.22
2019-01-21T02:47:50.367Z,-2.14
2019-01-21T02:49:07.546Z,-2.2
2019-01-21T02:50:17.020Z,-2.1
2019-01-21T02:51:26.999Z,-2.22
2019-01-21T02:52:36.695Z,-2.17
2019-01-21T02:53:46.670Z,-2.2
2019-01-21T02:54:56.384Z,-2.17
2019-01-21T02:56:06.101Z,-2.13
2019-01-21T02:57:16.070Z,-2.1
2019-01-21T02:58:26.020Z,-2.13
2019-01-21T02:59:35.976Z,-2.2
2019-01-21T03:00:45.435Z,-2.11
2019-01-21T03:01:54.929Z,-2.2
2019-01-21T03:03:04.887Z,-2.18
2019-01-21T03:04:14.867Z,-2.14
2019-01-21T03:05:24.841Z,-2.17
2019-01-21T03:06:34.812Z,-2.14
2019-01-21T03:07:44.534Z,-2.25
2019-01-21T03:08:54.501Z,-2.26
2019-01-21T03:10:04.489Z,-2.26
2019-01-21T03:11:14.186Z,-2.2
2019-01-21T03:12:23.886Z,-2.2
2019-01-21T03:13:33.609Z,-2.29
2019-01-21T03:14:43.556Z,-2.25
2019-01-21T03:15:53.730Z,-2.32
2019-01-21T03:17:03.838Z,-2.25
2019-01-21T03:18:14.096Z,-2.2
2019-01-21T03:19:24.715Z,-2.26
2019-01-21T03:20:35.194Z,-2.28
2019-01-21T03:21:45.539Z,-2.32
2019-01-21T03:22:55.522Z,-2.28
2019-01-21T03:24:05.228Z,-2.29
2019-01-21T03:25:15.187Z,-2.26
2019-01-21T03:26:25.157Z,-2.26
2019-01-21T03:27:35.131Z,-2.13
2019-01-21T03:28:45.087Z,-2.18
2019-01-21T03:29:54.822Z,-2.14
2019-01-21T03:31:04.598Z,-2.17
2019-01-21T03:32:14.601Z,-2.18
2019-01-21T03:33:26.652Z,-2.14
2019-01-21T03:34:37.044Z,-2.15
2019-01-21T03:35:47.005Z,-2.13
2019-01-21T03:36:56.731Z,-2.1
2019-01-21T03:38:06.485Z,-2.11
2019-01-21T03:39:16.477Z,-2.07
2019-01-21T03:40:26.462Z,-2.04
2019-01-21T03:41:36.428Z,-2
2019-01-21T03:42:46.148Z,-2.08
2019-01-21T03:43:56.101Z,-2.1
2019-01-21T03:45:05.605Z,-2.08
2019-01-21T03:46:15.593Z,-2.13
2019-01-21T03:47:25.556Z,-2.13
2019-01-21T03:48:35.027Z,-2.1
2019-01-21T03:49:45.012Z,-2.05
2019-01-21T03:50:54.980Z,-2.17
2019-01-21T03:52:04.965Z,-2.07
2019-01-21T03:53:14.444Z,-2
2019-01-21T03:54:24.421Z,-2.1
2019-01-21T03:55:34.764Z,-2.13
2019-01-21T03:56:45.164Z,-2.08
2019-01-21T03:57:55.985Z,-2.08
2019-01-21T03:59:06.852Z,-2.02
2019-01-21T04:00:17.282Z,-2.1
2019-01-21T04:01:27.002Z,-2.15
2019-01-21T04:02:36.968Z,-2.15
2019-01-21T04:03:46.931Z,-2.18
2019-01-21T04:04:56.845Z,-2.2
2019-01-21T04:06:06.573Z,-2.22
2019-01-21T04:07:16.277Z,-2.23
2019-01-21T04:08:25.990Z,-2.26
2019-01-21T04:09:35.960Z,-2.2
2019-01-21T04:10:45.676Z,-2.15
2019-01-21T04:11:55.748Z,-2.11
2019-01-21T04:13:05.466Z,-2.15
2019-01-21T04:14:15.420Z,-2.33
2019-01-21T04:15:25.081Z,-2.25
2019-01-21T04:16:35.048Z,-2.36
2019-01-21T04:17:45.038Z,-2.36
2019-01-21T04:18:54.768Z,-2.34
2019-01-21T04:20:04.479Z,-2.29
2019-01-21T04:21:14.458Z,-2.29
2019-01-21T04:22:24.458Z,-2.33
2019-01-21T04:23:34.418Z,-2.22
2019-01-21T04:24:44.138Z,-2.22
2019-01-21T04:25:54.546Z,-2.23
2019-01-21T04:27:04.576Z,-2.2
2019-01-21T04:28:14.282Z,-2.25
2019-01-21T04:29:24.012Z,-2.18
2019-01-21T04:30:33.732Z,-2.14
2019-01-21T04:31:43.766Z,-2.15
2019-01-21T04:32:53.475Z,-2.11
2019-01-21T04:34:03.442Z,-2.13
2019-01-21T04:35:13.426Z,-2.22
2019-01-21T04:36:23.382Z,-2.15
2019-01-21T04:37:34.424Z,-2.25
2019-01-21T04:38:45.468Z,-2.25
2019-01-21T04:39:55.903Z,-2.23
2019-01-21T04:41:05.937Z,-2.26
2019-01-21T04:42:15.908Z,-2.26
2019-01-21T04:43:25.378Z,-2.33
2019-01-21T04:44:35.372Z,-2.29
2019-01-21T04:45:44.835Z,-2.34
2019-01-21T04:46:54.570Z,-2.36
2019-01-21T04:48:04.530Z,-2.36
2019-01-21T04:49:14.502Z,-2.26
2019-01-21T04:50:24.493Z,-2.26
2019-01-21T04:51:34.461Z,-2.29
2019-01-21T04:52:44.009Z,-2.29
2019-01-21T04:53:55.052Z,-2.34
2019-01-21T04:55:05.165Z,-2.4
2019-01-21T04:56:14.900Z,-2.54
2019-01-21T04:57:24.866Z,-2.51
2019-01-21T04:58:34.590Z,-2.52
2019-01-21T04:59:44.561Z,-2.5
2019-01-21T05:00:54.285Z,-2.5
2019-01-21T05:02:04.266Z,-2.5
2019-01-21T05:03:13.976Z,-2.45
2019-01-21T05:04:23.459Z,-2.57
2019-01-21T05:05:33.230Z,-2.51
2019-01-21T05:06:43.215Z,-2.48
2019-01-21T05:07:53.180Z,-2.54
2019-01-21T05:09:03.177Z,-2.45
2019-01-21T05:10:13.180Z,-2.57
2019-01-21T05:11:22.901Z,-2.54
2019-01-21T05:12:32.606Z,-2.58
2019-01-21T05:13:42.579Z,-2.65
2019-01-21T05:14:52.545Z,-2.57
2019-01-21T05:16:02.264Z,-2.54
2019-01-21T05:17:12.037Z,-2.58
2019-01-21T05:18:22.316Z,-2.57
2019-01-21T05:19:32.726Z,-2.55
2019-01-21T05:20:43.457Z,-2.62
2019-01-21T05:21:54.058Z,-2.68
2019-01-21T05:23:04.739Z,-2.62
2019-01-21T05:24:15.012Z,-2.52
2019-01-21T05:25:26.173Z,-2.61
2019-01-21T05:26:35.968Z,-2.61
2019-01-21T05:27:45.685Z,-2.54
2019-01-21T05:28:55.662Z,-2.5
2019-01-21T05:30:05.658Z,-2.54
2019-01-21T05:31:15.121Z,-2.66
2019-01-21T05:32:24.862Z,-2.58
2019-01-21T05:33:34.580Z,-2.61
2019-01-21T05:34:44.597Z,-2.61
2019-01-21T05:35:54.579Z,-2.62
2019-01-21T05:37:04.561Z,-2.61
2019-01-21T05:38:14.518Z,-2.72
2019-01-21T05:39:24.224Z,-2.78
2019-01-21T05:40:34.161Z,-2.7
2019-01-21T05:41:43.862Z,-2.72
2019-01-21T05:42:53.822Z,-2.72
2019-01-21T05:44:03.523Z,-2.65
2019-01-21T05:45:13.484Z,-2.7
2019-01-21T05:46:23.193Z,-2.65
2019-01-21T05:47:33.134Z,-2.7
2019-01-21T05:48:48.826Z,-2.68
2019-01-21T05:49:58.909Z,-2.62
2019-01-21T05:51:08.926Z,-2.62
2019-01-21T05:52:18.661Z,-2.61
2019-01-21T05:53:28.620Z,-2.5
2019-01-21T05:54:38.588Z,-2.58
2019-01-21T05:55:48.542Z,-2.61
2019-01-21T05:56:58.491Z,-2.68
2019-01-21T05:58:07.930Z,-2.73
2019-01-21T05:59:17.615Z,-2.76
2019-01-21T06:00:27.315Z,-2.78
2019-01-21T06:01:37.263Z,-2.72
2019-01-21T06:02:47.209Z,-2.78
2019-01-21T06:03:57.164Z,-2.75
2019-01-21T06:05:06.621Z,-2.76
2019-01-21T06:06:16.561Z,-2.86
2019-01-21T06:07:26.241Z,-2.78
2019-01-21T06:08:36.179Z,-2.83
2019-01-21T06:09:46.111Z,-2.9
2019-01-21T06:10:56.049Z,-2.94
2019-01-21T06:12:05.755Z,-2.86
2019-01-21T06:13:15.797Z,-2.93
2019-01-21T06:14:25.795Z,-2.98
2019-01-21T06:15:35.256Z,-2.93
2019-01-21T06:16:44.960Z,-2.96
2019-01-21T06:17:54.667Z,-2.99
2019-01-21T06:19:04.595Z,-2.96
2019-01-21T06:20:14.795Z,-3.01
2019-01-21T06:21:24.751Z,-2.99
2019-01-21T06:22:34.720Z,-2.98
2019-01-21T06:23:44.679Z,-3.04
2019-01-21T06:24:54.366Z,-3.05
2019-01-21T06:26:04.315Z,-2.98
2019-01-21T06:27:13.997Z,-2.98
2019-01-21T06:28:23.950Z,-3.04
2019-01-21T06:29:33.636Z,-3.02
2019-01-21T06:30:43.333Z,-3.05
2019-01-21T06:31:53.008Z,-2.98
2019-01-21T06:33:04.362Z,-3.05
2019-01-21T06:34:14.396Z,-3.04
2019-01-21T06:35:24.356Z,-3.05
2019-01-21T06:36:34.324Z,-3.01
2019-01-21T06:37:44.310Z,-3.02
2019-01-21T06:38:53.743Z,-2.98
2019-01-21T06:40:03.182Z,-3.02
2019-01-21T06:41:13.111Z,-3.08
2019-01-21T06:42:22.797Z,-3.05
2019-01-21T06:43:32.734Z,-3.04
2019-01-21T06:44:42.677Z,-3.05
2019-01-21T06:45:52.653Z,-3.15
2019-01-21T06:47:02.593Z,-2.98
2019-01-21T06:48:11.527Z,-3.01
2019-01-21T06:49:21.243Z,-2.94
2019-01-21T06:50:31.440Z,-3.05
2019-01-21T06:51:41.785Z,-3.04
2019-01-21T06:52:51.495Z,-3.08
2019-01-21T06:54:01.434Z,-3.02
2019-01-21T06:55:11.394Z,-3.08
2019-01-21T06:56:21.316Z,-3.04
2019-01-21T06:57:31.252Z,-2.96
2019-01-21T06:58:41.201Z,-3.12
2019-01-21T06:59:50.899Z,-3.01
2019-01-21T07:01:00.839Z,-3.05
2019-01-21T07:02:10.523Z,-3.02
2019-01-21T07:03:20.490Z,-3.02
2019-01-21T07:04:30.447Z,-3.02
2019-01-21T07:05:39.935Z,-2.99
2019-01-21T07:06:49.895Z,-2.96
2019-01-21T07:07:59.873Z,-3.05
2019-01-21T07:09:10.047Z,-3.08
2019-01-21T07:10:20.094Z,-3.14
2019-01-21T07:11:29.775Z,-3.19
2019-01-21T07:12:39.724Z,-3.17
2019-01-21T07:13:49.676Z,-3.2
2019-01-21T07:14:59.623Z,-3.15
2019-01-21T07:16:09.311Z,-3.17
2019-01-21T07:17:19.001Z,-3.2
2019-01-21T07:18:30.935Z,-3.23
2019-01-21T07:19:40.646Z,-3.2
2019-01-21T07:20:51.587Z,-3.17
2019-01-21T07:22:01.618Z,-3.15
2019-01-21T07:23:11.305Z,-3.05
2019-01-21T07:24:21.267Z,-3.12
2019-01-21T07:25:31.225Z,-3.08
2019-01-21T07:26:41.195Z,-3.17
2019-01-21T07:27:50.649Z,-3.2
2019-01-21T07:29:00.337Z,-3.17
2019-01-21T07:30:10.312Z,-3.22
2019-01-21T07:31:20.317Z,-3.23
2019-01-21T07:32:30.089Z,-3.22
2019-01-21T07:33:39.788Z,-3.19
2019-01-21T07:34:49.752Z,-3.11
2019-01-21T07:35:59.729Z,-3.15
2019-01-21T07:37:09.670Z,-3.08
2019-01-21T07:38:19.613Z,-3.07
2019-01-21T07:39:29.305Z,-3.08
2019-01-21T07:40:41.557Z,-3.17
2019-01-21T07:41:51.503Z,-3.19
2019-01-21T07:43:02.814Z,-3.23
2019-01-21T07:44:12.766Z,-3.29
2019-01-21T07:45:22.473Z,-3.29
2019-01-21T07:46:32.192Z,-3.33
2019-01-21T07:47:42.186Z,-3.27
2019-01-21T07:48:52.115Z,-3.27
2019-01-21T07:50:01.833Z,-3.29
2019-01-21T07:51:11.567Z,-3.22
2019-01-21T07:52:21.501Z,-3.23
2019-01-21T07:53:30.929Z,-3.23
2019-01-21T07:54:40.889Z,-3.22
2019-01-21T07:55:50.867Z,-3.2
2019-01-21T07:57:00.853Z,-3.23
2019-01-21T07:58:10.847Z,-3.29
2019-01-21T07:59:20.540Z,-3.36
2019-01-21T08:00:30.238Z,-3.38
2019-01-21T08:01:39.895Z,-3.33
2019-01-21T08:02:49.598Z,-3.33
2019-01-21T08:03:59.048Z,-3.43
2019-01-21T08:05:08.790Z,-3.33
2019-01-21T08:06:18.509Z,-3.38
2019-01-21T08:07:28.429Z,-3.32
2019-01-21T08:08:38.200Z,-3.4
2019-01-21T08:09:47.899Z,-3.44
2019-01-21T08:10:57.852Z,-3.44
2019-01-21T08:12:07.826Z,-3.41
2019-01-21T08:13:17.040Z,-3.5
2019-01-21T08:14:26.761Z,-3.43
2019-01-21T08:15:36.494Z,-3.44
2019-01-21T08:16:46.572Z,-3.46
2019-01-21T08:17:57.450Z,-3.44
2019-01-21T08:19:07.423Z,-3.43
2019-01-21T08:20:17.373Z,-3.44
2019-01-21T08:21:27.078Z,-3.4
2019-01-21T08:22:36.807Z,-3.38
2019-01-21T08:23:46.818Z,-3.43
2019-01-21T08:24:56.521Z,-3.48
2019-01-21T08:26:06.500Z,-3.43
2019-01-21T08:27:16.452Z,-3.48
2019-01-21T08:28:25.914Z,-3.5
2019-01-21T08:29:35.596Z,-3.41
2019-01-21T08:30:45.869Z,-3.38
2019-01-21T08:31:55.802Z,-3.44
2019-01-21T08:33:05.794Z,-3.36
2019-01-21T08:34:15.506Z,-3.4
2019-01-21T08:35:25.475Z,-3.26
2019-01-21T08:36:35.437Z,-3.33
2019-01-21T08:37:45.125Z,-3.29
2019-01-21T08:38:55.091Z,-3.38
2019-01-21T08:40:05.041Z,-3.44
2019-01-21T08:41:14.978Z,-3.48
2019-01-21T08:42:24.928Z,-3.51
2019-01-21T08:43:34.630Z,-3.48
2019-01-21T08:44:44.106Z,-3.4
2019-01-21T08:45:54.043Z,-3.41
2019-01-21T08:47:03.995Z,-3.41
2019-01-21T08:48:13.956Z,-3.32
2019-01-21T08:49:23.932Z,-3.3
2019-01-21T08:50:38.344Z,-3.38
2019-01-21T08:51:48.074Z,-3.43
2019-01-21T08:52:58.025Z,-3.4
2019-01-21T08:54:08.006Z,-3.51
2019-01-21T08:55:17.968Z,-3.36
2019-01-21T08:56:27.657Z,-3.38
2019-01-21T08:57:37.569Z,-3.36
2019-01-21T08:58:47.506Z,-3.26
2019-01-21T08:59:57.449Z,-3.22
2019-01-21T09:01:07.402Z,-3.17
2019-01-21T09:02:17.352Z,-3.08
2019-01-21T09:03:27.352Z,-3.11
2019-01-21T09:04:37.072Z,-3.05
2019-01-21T09:05:47.081Z,-3.17
2019-01-21T09:07:03.112Z,-3.2
2019-01-21T09:08:12.810Z,-3.12
2019-01-21T09:09:22.524Z,-3.19
2019-01-21T09:10:32.460Z,-3.19
2019-01-21T09:11:42.431Z,-3.19
2019-01-21T09:12:52.378Z,-3.22
2019-01-21T09:14:02.301Z,-3.09
2019-01-21T09:15:12.320Z,-3.19
2019-01-21T09:16:22.026Z,-3.05
2019-01-21T09:17:31.986Z,-3.11
2019-01-21T09:18:41.414Z,-3.01
2019-01-21T09:19:50.857Z,-3.05
2019-01-21T09:21:00.805Z,-3.04
2019-01-21T09:22:10.529Z,-3.02
2019-01-21T09:23:20.241Z,-3.04
2019-01-21T09:24:29.719Z,-2.98
2019-01-21T09:25:39.385Z,-3.02
2019-01-21T09:26:48.594Z,-3.02
2019-01-21T09:27:58.503Z,-3.01
2019-01-21T09:29:07.915Z,-2.99
2019-01-21T09:30:17.116Z,-3.02
2019-01-21T09:31:26.819Z,-3.01
2019-01-21T09:32:36.765Z,-2.98
2019-01-21T09:33:46.456Z,-2.96
2019-01-21T09:34:56.146Z,-3.02
2019-01-21T09:36:05.868Z,-2.89
2019-01-21T09:37:15.826Z,-2.99
2019-01-21T09:38:25.767Z,-2.96
2019-01-21T09:39:35.702Z,-2.91
2019-01-21T09:40:45.646Z,-2.99
2019-01-21T09:41:55.082Z,-2.99
2019-01-21T09:43:05.073Z,-2.96
2019-01-21T09:44:14.752Z,-2.94
2019-01-21T09:45:24.455Z,-3.01
2019-01-21T09:46:34.174Z,-2.99
2019-01-21T09:47:44.122Z,-2.89
2019-01-21T09:48:54.071Z,-3.01
2019-01-21T09:50:04.005Z,-3.01
2019-01-21T09:51:13.458Z,-3.01
2019-01-21T09:52:23.422Z,-2.93
2019-01-21T09:53:33.392Z,-3.04
2019-01-21T09:54:43.110Z,-3.07
2019-01-21T09:55:53.060Z,-2.89
2019-01-21T09:57:02.775Z,-3.01
2019-01-21T09:58:12.748Z,-3.05
2019-01-21T09:59:22.443Z,-2.9
2019-01-21T10:00:32.381Z,-2.99
2019-01-21T10:01:42.335Z,-2.91
2019-01-21T10:02:52.300Z,-2.98
2019-01-21T10:04:02.246Z,-3.01
2019-01-21T10:05:12.419Z,-2.93
2019-01-21T10:06:22.142Z,-2.9
2019-01-21T10:07:31.870Z,-2.93
2019-01-21T10:08:41.807Z,-3.04
2019-01-21T10:09:57.642Z,-2.9
2019-01-21T10:11:08.417Z,-2.94
2019-01-21T10:12:18.116Z,-3.05
2019-01-21T10:13:28.066Z,-2.98
2019-01-21T10:14:37.514Z,-3.01
2019-01-21T10:15:47.496Z,-2.94
2019-01-21T10:16:57.481Z,-2.81
2019-01-21T10:18:07.485Z,-2.81
2019-01-21T10:19:17.432Z,-2.86
2019-01-21T10:20:27.368Z,-2.86
2019-01-21T10:21:37.296Z,-2.73
2019-01-21T10:22:46.983Z,-2.94
2019-01-21T10:23:56.918Z,-2.84
2019-01-21T10:25:06.864Z,-2.83
2019-01-21T10:26:16.819Z,-2.89
2019-01-21T10:27:26.763Z,-2.8
2019-01-21T10:28:36.704Z,-2.73
2019-01-21T10:29:46.931Z,-2.75
2019-01-21T10:30:56.887Z,-2.75
2019-01-21T10:32:06.833Z,-2.72
2019-01-21T10:33:17.016Z,-2.81
2019-01-21T10:34:26.696Z,-2.76
2019-01-21T10:35:36.627Z,-2.84
2019-01-21T10:36:46.567Z,-2.93
2019-01-21T10:37:56.034Z,-2.96
2019-01-21T10:39:05.984Z,-2.91
2019-01-21T10:40:17.124Z,-2.91
2019-01-21T10:41:26.832Z,-2.9
2019-01-21T10:42:36.490Z,-2.89
2019-01-21T10:43:46.437Z,-2.83
2019-01-21T10:44:56.444Z,-2.87
2019-01-21T10:46:06.126Z,-2.73
2019-01-21T10:47:15.861Z,-2.78
2019-01-21T10:48:25.997Z,-2.84
2019-01-21T10:49:36.121Z,-2.83
2019-01-21T10:50:45.816Z,-2.81
2019-01-21T10:51:55.757Z,-2.72
2019-01-21T10:53:05.696Z,-2.75
2019-01-21T10:54:15.709Z,-2.75
2019-01-21T10:55:25.675Z,-2.68
2019-01-21T10:56:35.132Z,-2.63
2019-01-21T10:57:45.084Z,-2.7
2019-01-21T10:58:55.034Z,-2.72
2019-01-21T11:00:04.766Z,-2.65
2019-01-21T11:01:14.209Z,-2.65
2019-01-21T11:02:24.143Z,-2.69
2019-01-21T11:03:33.825Z,-2.76
2019-01-21T11:04:43.792Z,-2.8
2019-01-21T11:05:53.753Z,-2.84
2019-01-21T11:07:03.690Z,-2.8
2019-01-21T11:08:13.406Z,-2.8
2019-01-21T11:09:29.184Z,-2.75
2019-01-21T11:10:38.872Z,-2.8
2019-01-21T11:11:53.898Z,-2.63
2019-01-21T11:13:03.981Z,-2.58
2019-01-21T11:14:17.012Z,-2.5
2019-01-21T11:15:26.692Z,-2.55
2019-01-21T11:16:36.378Z,-2.63
2019-01-21T11:17:46.325Z,-2.73
2019-01-21T11:18:56.295Z,-2.66
2019-01-21T11:20:09.131Z,-2.55
2019-01-21T11:21:18.580Z,-2.66
2019-01-21T11:22:28.062Z,-2.75
2019-01-21T11:23:37.989Z,-2.76
2019-01-21T11:24:47.955Z,-2.68
2019-01-21T11:25:57.663Z,-2.68
2019-01-21T11:27:07.341Z,-2.72
2019-01-21T11:28:17.293Z,-2.78
2019-01-21T11:29:27.254Z,-2.81
2019-01-21T11:30:37.228Z,-2.75
2019-01-21T11:31:47.187Z,-2.73
2019-01-21T11:32:57.126Z,-2.66
2019-01-21T11:34:06.411Z,-2.8
2019-01-21T11:35:16.365Z,-2.73
2019-01-21T11:36:26.304Z,-2.69
2019-01-21T11:37:36.020Z,-2.73
2019-01-21T11:38:45.991Z,-2.73
2019-01-21T11:39:55.928Z,-2.65
2019-01-21T11:41:05.627Z,-2.55
2019-01-21T11:42:15.672Z,-2.55
2019-01-21T11:43:25.367Z,-2.58
2019-01-21T11:44:35.063Z,-2.65
2019-01-21T11:45:44.777Z,-2.66
2019-01-21T11:46:54.491Z,-2.63
2019-01-21T11:48:04.433Z,-2.69
2019-01-21T11:49:14.389Z,-2.62
2019-01-21T11:50:24.106Z,-2.66
2019-01-21T11:51:34.045Z,-2.75
2019-01-21T11:52:43.774Z,-2.78
2019-01-21T11:53:53.468Z,-2.8
2019-01-21T11:55:03.192Z,-2.7
2019-01-21T11:56:12.900Z,-2.73
2019-01-21T11:57:22.589Z,-2.78
2019-01-21T11:58:32.559Z,-2.76
2019-01-21T11:59:43.106Z,-2.78
2019-01-21T12:00:52.669Z,-2.75
2019-01-21T12:02:02.382Z,-2.83
2019-01-21T12:03:12.072Z,-2.78
2019-01-21T12:04:28.697Z,-2.76
2019-01-21T12:05:38.651Z,-2.8
2019-01-21T12:06:48.617Z,-2.78
2019-01-21T12:07:58.103Z,-2.62
2019-01-21T12:09:07.813Z,-2.62
2019-01-21T12:10:17.770Z,-2.55
2019-01-21T12:11:27.739Z,-2.44
2019-01-21T12:12:37.699Z,-2.5
2019-01-21T12:13:47.399Z,-2.37
2019-01-21T12:14:57.359Z,-2.36
2019-01-21T12:16:07.046Z,-2.39
2019-01-21T12:17:16.990Z,-2.25
2019-01-21T12:18:26.911Z,-2.32
2019-01-21T12:19:36.613Z,-2.29
2019-01-21T12:20:46.335Z,-2.32
2019-01-21T12:21:56.057Z,-2.36
2019-01-21T12:23:05.978Z,-2.42
2019-01-21T12:24:16.190Z,-2.37
2019-01-21T12:25:26.165Z,-2.32
2019-01-21T12:26:36.113Z,-2.28
2019-01-21T12:27:46.147Z,-2.26
2019-01-21T12:28:55.851Z,-2.34
2019-01-21T12:30:07.285Z,-2.44
2019-01-21T12:31:17.227Z,-2.4
2019-01-21T12:32:26.983Z,-2.45
2019-01-21T12:33:36.946Z,-2.54
2019-01-21T12:34:46.901Z,-2.58
2019-01-21T12:35:56.847Z,-2.58
2019-01-21T12:37:06.797Z,-2.45
2019-01-21T12:38:16.753Z,-2.47
2019-01-21T12:39:26.198Z,-2.29
2019-01-21T12:40:36.147Z,-2.32
2019-01-21T12:41:46.159Z,-2.22
2019-01-21T12:42:55.873Z,-2.17
2019-01-21T12:44:05.836Z,-2.05
2019-01-21T12:45:15.289Z,-2.05
2019-01-21T12:46:25.099Z,-2
2019-01-21T12:47:35.186Z,-2.1
2019-01-21T12:48:45.139Z,-2.04
2019-01-21T12:49:55.163Z,-2.05
2019-01-21T12:51:05.127Z,-2.17
2019-01-21T12:52:14.825Z,-2.15
2019-01-21T12:53:24.728Z,-2.15
2019-01-21T12:54:34.659Z,-2.14
2019-01-21T12:55:44.595Z,-2.05
2019-01-21T12:56:55.407Z,-2.02
2019-01-21T12:58:05.392Z,-1.93
2019-01-21T12:59:20.785Z,-1.96
2019-01-21T13:00:30.706Z,-2.02
2019-01-21T13:01:40.683Z,-1.92
2019-01-21T13:02:50.617Z,-1.81
2019-01-21T13:04:00.574Z,-1.92
2019-01-21T13:05:10.257Z,-1.86
2019-01-21T13:06:19.812Z,-1.84
2019-01-21T13:07:29.776Z,-1.75
2019-01-21T13:08:39.760Z,-1.69
2019-01-21T13:09:49.755Z,-1.69
2019-01-21T13:10:59.461Z,-1.58
2019-01-21T13:12:09.156Z,-1.51
2019-01-21T13:13:18.864Z,-1.36
2019-01-21T13:14:28.550Z,-1.33
2019-01-21T13:15:38.500Z,-1.25
2019-01-21T13:16:48.447Z,-1.17
2019-01-21T13:17:58.146Z,-1.11
2019-01-21T13:19:07.842Z,-1.12
2019-01-21T13:20:17.798Z,-0.84
2019-01-21T13:21:27.734Z,-0.89
2019-01-21T13:22:42.344Z,-0.84
2019-01-21T13:23:56.740Z,-0.84
2019-01-21T13:25:06.691Z,-0.85
2019-01-21T13:26:16.756Z,-0.91
2019-01-21T13:27:26.450Z,-0.81
2019-01-21T13:28:36.409Z,-0.75
2019-01-21T13:29:46.368Z,-0.6
2019-01-21T13:30:56.338Z,-0.77
2019-01-21T13:32:06.301Z,-0.72
2019-01-21T13:33:17.444Z,-0.63
2019-01-21T13:34:27.402Z,-0.49
2019-01-21T13:35:36.870Z,-0.69
2019-01-21T13:36:46.785Z,-0.75
2019-01-21T13:37:56.488Z,-0.57
2019-01-21T13:39:06.193Z,-0.57
2019-01-21T13:40:16.231Z,-0.64
2019-01-21T13:41:25.906Z,-0.66
2019-01-21T13:42:35.852Z,-0.49
2019-01-21T13:43:45.816Z,-0.38
2019-01-21T13:44:55.514Z,-0.3
2019-01-21T13:46:05.200Z,-0.27
2019-01-21T13:47:15.135Z,-0.27
2019-01-21T13:48:24.834Z,-0.23
2019-01-21T13:49:34.767Z,-0.07
2019-01-21T13:50:44.719Z,-0.03
2019-01-21T13:51:54.417Z,-0.02
2019-01-21T13:53:04.344Z,0.01
2019-01-21T13:54:14.292Z,-0.12
2019-01-21T13:55:24.228Z,-0.05
2019-01-21T13:56:34.174Z,0.08
2019-01-21T13:57:44.118Z,0.02
2019-01-21T13:58:54.045Z,0.13
2019-01-21T14:00:03.745Z,0.08
2019-01-21T14:01:13.690Z,-0.09
2019-01-21T14:02:23.896Z,-0.21
2019-01-21T14:03:33.848Z,-0.13
2019-01-21T14:04:45.131Z,-0.02
2019-01-21T14:05:55.054Z,-0.05
2019-01-21T14:07:06.263Z,-0.09
2019-01-21T14:08:15.945Z,-0.1
2019-01-21T14:09:25.888Z,-0.17
2019-01-21T14:10:35.574Z,-0.39
2019-01-21T14:11:45.546Z,-0.51
2019-01-21T14:12:55.535Z,-0.44
2019-01-21T14:14:05.462Z,-0.48
2019-01-21T14:15:14.910Z,-0.41
2019-01-21T14:16:24.637Z,-0.33
2019-01-21T14:17:34.328Z,-0.38
2019-01-21T14:18:44.292Z,-0.26
2019-01-21T14:19:54.235Z,-0.42
2019-01-21T14:21:03.922Z,-0.44
2019-01-21T14:22:13.638Z,-0.39
2019-01-21T14:23:27.817Z,-0.51
2019-01-21T14:24:37.278Z,-0.53
2019-01-21T14:25:47.281Z,-0.44
2019-01-21T14:26:56.486Z,-0.39
2019-01-21T14:28:06.429Z,-0.42
2019-01-21T14:29:16.378Z,-0.3
2019-01-21T14:30:26.347Z,-0.35
2019-01-21T14:31:37.333Z,-0.35
2019-01-21T14:32:47.278Z,-0.3
2019-01-21T14:33:56.770Z,-0.31
2019-01-21T14:35:06.720Z,-0.26
2019-01-21T14:36:16.666Z,-0.42
2019-01-21T14:37:26.306Z,-0.59
2019-01-21T14:38:36.329Z,-0.64
2019-01-21T14:39:46.296Z,-0.6
2019-01-21T14:40:56.010Z,-0.6
2019-01-21T14:42:05.732Z,-0.53
2019-01-21T14:43:16.158Z,-0.53
2019-01-21T14:44:25.891Z,-0.63
2019-01-21T14:45:35.832Z,-0.63
2019-01-21T14:46:45.552Z,-0.78
2019-01-21T14:47:55.658Z,-1
2019-01-21T14:49:09.596Z,-0.99
2019-01-21T14:50:19.099Z,-1.03
2019-01-21T14:51:29.074Z,-1.24
2019-01-21T14:52:39.076Z,-1.38
2019-01-21T14:53:49.107Z,-1.38
2019-01-21T14:54:58.797Z,-1.33
2019-01-21T14:56:08.570Z,-1.32
2019-01-21T14:57:18.623Z,-1.33
2019-01-21T14:58:31.509Z,-1.46
2019-01-21T14:59:41.353Z,-1.39
2019-01-21T15:00:51.130Z,-1.4
2019-01-21T15:02:01.266Z,-1.35
2019-01-21T15:03:11.313Z,-1.39
2019-01-21T15:04:21.374Z,-1.42